24h
KLIENDITUGI:
Saartelennuliinid: +372 58856336 (24/7)
Estairi piletikassa lennujaamas:
+372 6058887; +372 55603687

17.10.2018 hommikune Transaviabaltika lend KTB670 kell 07:00 (kohalik aeg) Tallinn - Kärdla väljalend ja KTB671 kell 07:45 Kärdla – Tallinn väljalend hilineb 4 tundi. KTB670 TLL-KDL uus väljalennu aeg on kell 11:00 (kohalik aeg) ja KTB671 KDL – TLL uus väljalennu aeg on kell 11:45 (kohalik aeg). Lennu hilinemise põhjustab udu Kärdla lennuväljal. Lisainformatsioon telefonil 5885 6336, informatsiooni vahetus e-mail: [email protected]

EEKA Kärdla lennuväli 
FCEO32 EETN 170300 TAF EEKA 170300Z 1704/1710 18005KT 2000 BR OVC002 
TEMPO 1704/1707 0500 FG VV001 BECMG 1707/1709 5000 BKN005= 
METAR EEKA 170650Z 17006KT 2300 BR OVC002 10/10 Q1020=
Kuupäev: 
17/10/2018